Latest Weather Observations for Cocos Island

IDW60801

Issued at 6:33 am WST Sunday 24 July 2016 (issued every 30 minutes, with the page automatically refreshed every 10 minutes)

About weather observations | Map of weather stations | Latest weather observations for WA | Other Formats
Station Details ID: 200284 Name: COCOS ISLAND AIRPORT Lat: -12.19 Lon: 96.83 Height: 3.0 m
Data from the previous 72 hours. | See also: Recent months at Cocos Island
Date/Time
WST
Temp
°C
App
Temp
°C
Dew
Point
°C
Rel
Hum
%
Delta-T
°C
Wind Press
QNH
hPa
Press
MSL
hPa
Rain since
9am
mm
Dir  Spd
km/h
Gust
km/h
Spd
kts
Gust
kts
24/06:30am 25.3 23.6 23.1 87 1.5 SE 37 50 20 27 1009.4 - 0.4
24/06:07am 25.6 24.7 23.1 86 1.7 SE 33 41 18 22 1009.2 - 0.4
24/06:00am 25.5 24.1 23.0 86 1.7 SE 35 44 19 24 1009.1 - 0.4
24/05:30am 25.5 24.4 22.8 85 1.8 SE 33 41 18 22 1009.0 - 0.4
24/05:10am 25.1 23.6 22.7 86 1.6 SE 35 48 19 26 1009.1 - 0.4
24/05:06am 25.0 23.2 22.9 88 1.4 SE 37 48 20 26 1009.1 - 0.4
24/05:00am 24.9 23.4 22.7 87 1.5 SE 35 52 19 28 1009.1 1009.0 0.4
24/04:54am 24.6 23.3 23.1 91 1.0 ESE 35 54 19 29 1009.1 - 0.4
24/04:51am 24.9 23.7 23.3 91 1.1 ESE 35 54 19 29 1009.2 - 0.4
24/04:50am 25.1 23.9 23.3 90 1.2 ESE 35 54 19 29 1009.2 - 0.4
24/04:30am 25.1 23.7 23.0 88 1.4 SE 35 48 19 26 1009.2 - 0.4
24/04:00am 25.4 23.8 22.6 84 1.9 SE 35 46 19 25 1009.3 - 0.4
24/03:44am 24.9 24.1 23.1 90 1.2 SE 32 44 17 24 1009.4 - 0.4
24/03:30am 24.4 22.0 22.6 90 1.2 SE 39 52 21 28 1009.7 - 0.4
24/03:24am 25.3 24.4 23.2 88 1.4 SE 33 52 18 28 1009.8 - 0.4
24/03:11am 25.3 23.8 22.8 86 1.7 SE 35 48 19 26 1009.9 - 0.4
24/03:00am 25.4 24.0 23.0 86 1.6 SE 35 46 19 25 1010.0 - 0.4
24/02:30am 25.7 24.0 22.4 82 2.2 SE 35 44 19 24 1010.4 - 0.4
24/02:00am 25.1 23.7 22.9 87 1.5 SE 35 46 19 25 1010.6 1010.5 0.4
24/01:30am 25.7 24.5 22.6 83 2.1 SE 33 43 18 23 1010.5 - 0.4
24/01:00am 25.5 24.5 22.7 84 1.9 SE 32 43 17 23 1011.0 - 0.4
24/12:30am 25.1 24.1 23.0 88 1.4 SE 33 44 18 24 1011.2 - 0.2
24/12:00am 25.8 24.3 22.7 83 2.1 SE 35 46 19 25 1011.0 - 0.2
 
Date/Time
WST
Temp
°C
App
Temp
°C
Dew
Point
°C
Rel
Hum
%
Delta-T
°C
Wind Press
QNH
hPa
Press
MSL
hPa
Rain since
9am
mm
Dir  Spd
km/h
Gust
km/h
Spd
kts
Gust
kts
23/11:30pm 25.6 23.8 22.9 85 1.8 SE 37 50 20 27 1010.9 - 0.2
23/11:00pm 25.9 24.8 22.8 83 2.1 SE 33 44 18 24 1011.1 1011.0 0.2
23/10:30pm 25.6 24.8 23.1 86 1.7 SE 32 41 17 22 1011.1 - 0.2
23/10:00pm 25.9 24.5 22.9 83 2.0 SE 35 46 19 25 1010.8 - 0.2
23/09:30pm 25.7 23.9 23.0 85 1.8 SE 37 52 20 28 1010.7 - 0.2
23/09:00pm 25.9 24.2 22.5 81 2.3 SE 35 46 19 25 1010.6 - 0.2
23/08:30pm 25.6 24.7 22.9 85 1.8 SE 32 41 17 22 1010.6 - 0.2
23/08:14pm 25.7 24.2 22.7 83 2.0 SE 35 52 19 28 1010.6 - 0.2
23/08:02pm 25.3 23.8 22.8 86 1.7 SE 35 54 19 29 1010.5 - 0.2
23/08:00pm 25.2 22.8 22.5 85 1.8 SE 39 54 21 29 1010.4 1010.3 0.2
23/07:56pm 24.8 22.3 23.0 90 1.2 SE 41 54 22 29 1010.3 - 0.2
23/07:30pm 25.3 23.2 22.3 83 2.0 SE 37 50 20 27 1009.8 - 0.2
23/07:25pm 25.8 24.6 22.7 83 2.1 SE 33 50 18 27 1009.7 - 0.2
23/07:06pm 25.8 24.8 23.0 84 1.9 SE 33 48 18 26 1009.6 - 0.2
23/07:00pm 25.8 23.8 22.5 82 2.2 SE 37 46 20 25 1009.6 - 0.2
23/06:30pm 25.6 23.8 22.3 82 2.2 SE 35 50 19 27 1009.3 - 0.2
23/06:00pm 25.9 23.2 21.9 78 2.7 SE 39 50 21 27 1009.1 - 0.2
23/05:30pm 25.9 22.8 22.0 79 2.6 SE 41 52 22 28 1009.0 - 0.2
23/05:14pm 26.0 22.8 21.8 77 2.8 SE 41 52 22 28 1009.0 - 0.2
23/05:00pm 25.5 23.0 23.0 86 1.7 SE 41 59 22 32 1008.8 1008.7 0.2
23/04:59pm 25.3 22.7 22.8 86 1.7 SE 41 59 22 32 1008.9 - 0.2
23/04:56pm 25.1 22.1 22.9 87 1.5 SE 43 59 23 32 1009.0 - 0.2
23/04:30pm 26.6 24.1 22.3 77 2.9 SE 39 52 21 28 1009.0 - 0.2
23/04:00pm 26.1 23.5 22.2 79 2.6 SE 39 59 21 32 1008.8 - 0.2
23/03:37pm 26.2 25.1 23.4 84 1.9 SE 35 59 19 32 1009.3 - 0.2
23/03:30pm 26.0 24.5 23.4 85 1.8 SE 37 44 20 24 1009.3 - 0.2
23/03:17pm 25.3 22.8 23.1 87 1.5 SE 41 59 22 32 1009.6 - 0.2
23/03:00pm 24.9 22.1 22.4 86 1.7 SE 41 59 22 32 1009.9 - 0.2
23/02:58pm 24.8 21.9 22.3 86 1.7 SE 41 59 22 32 1010.0 - 0.2
23/02:44pm 26.4 24.4 22.5 79 2.6 SE 37 56 20 30 1010.0 - 0.2
23/02:30pm 27.1 24.9 22.8 77 2.9 SE 39 50 21 27 1010.0 - 0.2
23/02:03pm 26.3 24.3 22.6 80 2.5 SE 37 52 20 28 1010.3 - 0.2
23/02:00pm 26.2 24.9 23.1 83 2.1 SE 35 48 19 26 1010.3 1010.2 0.2
23/01:45pm 25.4 23.0 22.6 84 1.9 SE 39 54 21 29 1010.6 - 0.2
23/01:30pm 26.5 24.4 23.0 81 2.4 SE 39 52 21 28 1010.6 - 0.2
23/01:00pm 26.7 24.0 22.7 79 2.7 SE 41 54 22 29 1010.7 - 0.2
23/12:30pm 27.0 25.2 23.0 79 2.7 SE 37 48 20 26 1011.1 - 0.2
23/12:00pm 26.3 24.5 22.9 81 2.3 SE 37 48 20 26 1011.5 - 0.0
23/11:30am 26.3 24.9 22.9 81 2.3 SE 35 46 19 25 1011.8 - 0.0
23/11:00am 25.9 24.8 22.8 83 2.1 SE 33 44 18 24 1011.8 1011.7 0.8
23/10:30am 25.9 23.9 22.6 82 2.2 SE 37 48 20 26 1011.7 - 0.8
23/10:00am 25.9 23.8 22.3 80 2.4 SE 37 48 20 26 1011.8 - 0.8
23/09:30am 25.7 23.6 22.4 82 2.2 SE 37 50 20 27 1011.3 - 0.8
23/09:00am 25.8 23.7 22.4 81 2.3 SE 37 46 20 25 1010.9 - 0.8
23/08:30am 25.4 24.2 22.6 84 1.9 SE 33 46 18 25 1010.6 - 0.8
23/08:00am 25.4 23.8 22.6 84 1.9 SE 35 46 19 25 1010.4 1010.3 0.8
23/07:30am 25.1 23.0 22.3 84 1.9 SE 37 48 20 26 1010.2 - 0.8
23/07:00am 25.3 23.1 22.2 83 2.1 SE 37 50 20 27 1010.2 - 0.8
23/06:30am 25.2 23.4 22.2 83 2.0 SE 35 46 19 25 1010.1 - 0.8
23/06:00am 25.2 23.7 21.7 81 2.3 SE 32 43 17 23 1010.1 - 0.8
23/05:31am 25.1 23.6 22.0 83 2.1 SE 33 52 18 28 1010.1 - 0.8
23/05:30am 25.2 23.2 21.9 82 2.2 SE 35 52 19 28 1010.1 - 0.8
23/05:00am 25.3 23.1 21.4 79 2.6 SE 35 46 19 25 1010.0 1009.9 0.8
23/04:30am 24.9 22.8 21.7 82 2.1 SE 35 46 19 25 1010.4 - 0.8
23/04:00am 25.3 23.8 22.0 82 2.2 SE 33 44 18 24 1010.7 - 0.8
23/03:40am 25.2 23.1 21.7 81 2.3 SE 35 46 19 25 1010.6 - 0.8
23/03:30am 24.9 22.5 21.9 83 2.0 SE 37 48 20 26 1010.7 - 0.8
23/03:23am 24.5 22.3 22.1 86 1.6 SE 37 48 20 26 1010.9 - 0.8
23/03:00am 25.3 22.6 22.0 82 2.2 SE 39 48 21 26 1011.0 - 0.8
23/02:44am 24.9 23.7 22.2 85 1.8 SE 32 50 17 27 1011.3 - 0.8
23/02:30am 25.1 22.6 21.6 81 2.3 SE 37 52 20 28 1011.2 - 0.8
23/02:00am 25.3 23.8 22.0 82 2.2 SE 33 46 18 25 1011.6 1011.5 0.8
23/01:32am 24.8 22.3 22.4 86 1.6 SE 39 57 21 31 1011.8 - 0.8
23/01:30am 24.9 21.7 22.4 86 1.7 SE 43 57 23 31 1011.8 - 0.8
23/01:23am 25.0 22.5 22.3 85 1.8 SE 39 57 21 31 1011.9 - 0.8
23/01:00am 25.2 23.1 21.6 80 2.4 SE 35 44 19 24 1012.1 - 0.8
23/12:30am 25.5 24.1 22.2 82 2.2 SE 33 46 18 25 1012.1 - 0.8
23/12:16am 25.1 23.9 22.7 86 1.6 SE 33 43 18 23 1012.2 - 0.8
23/12:00am 24.7 22.7 22.6 88 1.4 SSE 37 50 20 27 1012.2 - 0.8
 
Date/Time
WST
Temp
°C
App
Temp
°C
Dew
Point
°C
Rel
Hum
%
Delta-T
°C
Wind Press
QNH
hPa
Press
MSL
hPa
Rain since
9am
mm
Dir  Spd
km/h
Gust
km/h
Spd
kts
Gust
kts
22/11:50pm 25.0 23.1 22.0 83 2.0 SE 35 56 19 30 1012.2 - 0.8
22/11:30pm 25.0 23.6 22.3 85 1.8 SE 33 44 18 24 1012.1 - 0.8
22/11:28pm 24.9 23.2 22.4 86 1.7 SE 35 50 19 27 1012.2 - 0.8
22/11:04pm 24.4 23.5 22.9 91 1.0 SE 32 44 17 24 1012.3 - 0.4
22/11:00pm 24.8 23.8 22.6 87 1.5 SSE 32 46 17 25 1012.2 1012.1 0.2
22/10:50pm 24.7 23.6 22.5 87 1.5 SSE 32 44 17 24 1012.2 - 0.2
22/10:30pm 24.5 22.6 22.7 90 1.2 SE 37 52 20 28 1012.2 - 0.2
22/10:29pm 24.6 22.9 22.5 88 1.4 SE 35 52 19 28 1012.2 - 0.0
22/10:25pm 24.9 23.7 22.2 85 1.8 SSE 32 50 17 27 1012.2 - 0.0
22/10:00pm 25.0 24.0 22.6 86 1.6 SSE 32 44 17 24 1011.8 - 0.0
22/09:39pm 25.9 24.2 22.5 81 2.3 SE 35 54 19 29 1011.7 - 0.0
22/09:30pm 25.8 23.9 22.1 80 2.5 SE 35 48 19 26 1011.5 - 0.0
22/09:00pm 25.9 25.4 22.8 83 2.1 SSE 30 41 16 22 1011.2 - 0.0
22/08:30pm 25.8 25.3 22.8 83 2.0 SSE 30 44 16 24 1010.8 - 0.0
22/08:00pm 25.8 24.3 22.8 83 2.0 SE 35 46 19 25 1010.3 1010.2 0.0
22/07:30pm 25.7 24.7 22.7 83 2.0 SSE 32 43 17 23 1009.7 - 0.0
22/07:00pm 26.2 24.8 22.3 79 2.6 SE 33 43 18 23 1009.4 - 0.0
22/06:31pm 25.7 24.4 22.4 82 2.2 SE 33 50 18 27 1009.3 - 0.0
22/06:30pm 25.7 24.3 22.3 81 2.3 SSE 33 50 18 27 1009.3 - 0.0
22/06:12pm 25.9 24.7 22.6 82 2.2 SE 33 46 18 25 1009.2 - 0.0
22/06:00pm 26.2 24.9 23.1 83 2.1 SE 35 46 19 25 1009.0 - 0.0
22/05:30pm 26.0 24.9 22.9 83 2.1 SE 33 44 18 24 1008.8 - 0.0
22/05:00pm 26.9 25.9 22.6 77 2.9 SE 32 41 17 22 1008.8 1008.7 0.0
22/04:30pm 26.3 24.9 22.9 81 2.3 SE 35 48 19 26 1009.0 - 0.0
22/04:00pm 26.9 25.6 23.1 80 2.6 SE 35 48 19 26 1009.2 - 0.0
22/03:30pm 27.1 27.0 23.6 81 2.4 SE 30 46 16 25 1009.5 - 0.0
22/03:00pm 27.2 26.3 23.1 78 2.8 SE 33 44 18 24 1009.8 - 0.0
22/02:30pm 27.1 26.3 23.3 80 2.6 SE 33 46 18 25 1010.1 - 0.0
22/02:00pm 26.7 26.2 23.6 83 2.1 SE 32 46 17 25 1010.5 1010.4 0.0
22/01:30pm 25.2 22.7 23.0 87 1.5 SE 41 50 22 27 1010.9 - 0.0
22/01:00pm 25.9 24.6 23.1 84 1.9 SE 35 43 19 23 1011.4 - 0.0
22/12:30pm 26.3 24.6 23.1 82 2.2 SE 37 48 20 26 1011.7 - 0.0
22/12:00pm 26.0 24.6 22.9 83 2.1 SE 35 44 19 24 1011.7 - 0.0
22/11:30am 26.0 24.8 22.6 81 2.3 ESE 33 44 18 24 1012.0 - 0.0
22/11:00am 25.8 25.0 23.0 84 1.9 SE 32 43 17 23 1012.0 1011.9 2.2
22/10:30am 25.7 24.7 22.7 83 2.0 SE 32 41 17 22 1011.7 - 2.2
22/10:00am 25.1 24.7 23.0 88 1.4 SE 30 41 16 22 1011.3 - 2.2
22/09:30am 25.2 24.1 22.8 86 1.6 SE 33 46 18 25 1011.0 - 2.2
22/09:00am 25.3 24.1 22.2 83 2.1 SE 32 41 17 22 1010.9 - 2.2
22/08:30am 25.1 24.0 22.4 85 1.8 SE 32 39 17 21 1010.7 - 2.2
22/08:23am 25.0 23.8 22.3 85 1.8 SE 32 43 17 23 1010.6 - 2.2
22/08:03am 24.8 23.8 22.6 87 1.5 SE 32 43 17 23 1010.7 - 2.0
22/08:00am 25.1 23.8 22.1 83 2.0 SE 32 39 17 21 1010.7 1010.6 1.4
22/07:30am 25.1 23.6 22.0 83 2.1 SE 33 46 18 25 1010.4 - 1.4
22/07:00am 24.8 23.6 22.3 86 1.7 SE 32 50 17 27 1010.0 - 1.4
22/06:58am 24.6 23.4 22.2 86 1.6 SE 32 50 17 27 1010.0 - 1.4
22/06:30am 24.8 23.4 22.0 84 1.9 SE 32 46 17 25 1009.9 - 1.4
22/06:22am 24.7 24.2 22.2 86 1.7 SE 28 46 15 25 1009.9 - 1.4
22/06:00am 24.9 24.1 21.7 82 2.1 SE 28 41 15 22 1009.9 - 1.4
22/05:30am 24.8 23.6 21.6 82 2.1 SE 30 39 16 21 1009.9 - 1.4
22/05:09am 24.9 23.5 21.9 83 2.0 SE 32 50 17 27 1010.0 - 1.4
22/05:00am 24.9 23.5 21.1 79 2.5 SE 30 43 16 23 1010.1 1010.0 1.4
22/04:46am 24.5 23.7 22.3 87 1.5 SE 30 43 16 23 1010.3 - 1.4
22/04:38am 24.7 23.2 21.8 84 1.9 SE 32 43 17 23 1010.4 - 1.2
22/04:30am 24.5 22.9 21.6 84 1.9 SE 32 41 17 22 1010.5 - 1.2
22/04:21am 24.0 22.6 22.2 90 1.2 SE 33 48 18 26 1010.6 - 1.2
22/04:00am 23.8 21.6 21.4 86 1.6 SE 35 56 19 30 1010.6 - 1.2
22/03:59am 23.7 21.5 21.4 87 1.5 SE 35 56 19 30 1010.7 - 1.2
22/03:52am 24.0 23.0 21.3 85 1.8 SSE 28 56 15 30 1010.7 - 1.2
22/03:30am 23.9 22.2 22.4 91 1.0 SE 35 48 19 26 1011.1 - 0.8
22/03:26am 24.1 22.9 22.3 90 1.2 SE 32 48 17 26 1011.1 - 0.6
22/03:08am 24.6 24.1 22.1 86 1.7 SSE 28 41 15 22 1011.1 - 0.2
22/03:00am 24.1 23.0 21.8 87 1.5 SE 30 43 16 23 1011.2 - 0.2
22/02:44am 24.1 22.6 22.0 88 1.4 SE 33 46 18 25 1011.3 - 0.0
22/02:30am 24.9 23.1 21.1 79 2.5 SE 32 41 17 22 1011.4 - 0.0
22/02:13am 24.6 22.9 21.3 82 2.2 SSE 32 44 17 24 1011.6 - 0.0
22/02:00am 23.9 22.3 21.6 87 1.5 SE 32 44 17 24 1011.9 1011.8 0.0
22/01:37am 24.7 23.5 21.5 82 2.1 SSE 30 41 16 22 1012.0 - 0.0
22/01:30am 24.8 23.0 21.2 80 2.4 SSE 32 43 17 23 1012.1 - 0.0
22/01:00am 24.7 22.9 21.2 81 2.3 SSE 32 46 17 25 1012.0 - 0.0
22/12:30am 24.3 22.7 21.6 85 1.8 SSE 32 44 17 24 1012.1 - 0.0
22/12:00am 24.7 23.2 20.9 79 2.5 SSE 30 44 16 24 1012.4 - 0.0
 
Date/Time
WST
Temp
°C
App
Temp
°C
Dew
Point
°C
Rel
Hum
%
Delta-T
°C
Wind Press
QNH
hPa
Press
MSL
hPa
Rain since
9am
mm
Dir  Spd
km/h
Gust
km/h
Spd
kts
Gust
kts
21/11:30pm 24.1 22.2 21.4 85 1.8 SSE 33 46 18 25 1012.5 - 0.0
21/11:12pm 23.7 21.8 21.3 86 1.6 SSE 33 44 18 24 1012.6 - 0.0
21/11:00pm 23.6 21.6 21.9 90 1.1 SSE 35 43 19 23 1012.6 1012.5 0.0
21/10:54pm 23.7 22.0 21.7 88 1.3 SSE 33 43 18 23 1012.6 - 0.0
21/10:38pm 24.5 22.0 20.8 80 2.4 SSE 35 46 19 25 1012.4 - 0.0
21/10:30pm 24.0 21.5 20.8 82 2.1 SSE 35 46 19 25 1012.5 - 0.0
21/10:24pm 23.8 21.6 21.4 86 1.6 SSE 35 48 19 26 1012.5 - 0.0
21/10:00pm 24.9 22.8 20.6 77 2.8 SSE 32 54 17 29 1012.2 - 0.0
21/09:30pm 24.4 21.8 20.7 80 2.4 SSE 35 48 19 26 1012.0 - 0.0
21/09:00pm 25.0 22.1 20.1 74 3.2 SSE 35 50 19 27 1011.7 - 0.0
21/08:30pm 24.2 21.0 20.2 78 2.6 SSE 37 50 20 27 1011.6 - 0.0
21/08:13pm 25.1 22.3 19.5 71 3.6 SSE 33 52 18 28 1011.3 - 0.0
21/08:00pm 25.2 22.0 19.5 70 3.7 SSE 35 46 19 25 1011.2 1011.1 0.0
21/07:30pm 25.0 22.3 19.7 72 3.4 SSE 33 46 18 25 1011.1 - 0.0
21/07:00pm 24.5 21.9 20.0 76 2.9 SSE 33 50 18 27 1010.9 - 0.0
21/06:30pm 25.5 22.8 19.6 70 3.8 SSE 33 46 18 25 1010.5 - 0.0
21/06:00pm 25.7 23.0 19.2 67 4.2 SSE 32 44 17 24 1010.2 - 0.0
21/05:46pm 25.6 23.1 20.1 71 3.6 SE 33 46 18 25 1010.1 - 0.0
21/05:30pm 26.0 23.3 19.3 66 4.3 SSE 32 46 17 25 1009.8 - 0.0
21/05:27pm 25.9 23.0 18.9 65 4.5 SSE 32 46 17 25 1009.8 - 0.0
21/05:00pm 26.5 23.6 18.9 63 4.9 SSE 32 44 17 24 1009.7 1009.6 0.0
21/04:30pm 26.9 22.8 17.3 55 6.0 SSE 35 46 19 25 1010.0 - 0.0
21/04:00pm 26.5 23.1 18.1 60 5.3 SSE 33 44 18 24 1010.0 - 0.0
21/03:30pm 26.7 23.3 17.6 57 5.7 SSE 32 44 17 24 1010.4 - 0.0
21/03:00pm 27.1 24.0 18.3 58 5.6 SSE 32 44 17 24 1010.6 - 0.0
21/02:30pm 26.6 23.3 18.4 60 5.2 SSE 33 46 18 25 1010.9 - 0.0
21/02:00pm 26.4 23.1 18.4 61 5.1 SSE 33 46 18 25 1011.2 1011.1 0.0
21/01:30pm 26.2 22.9 18.3 61 5.0 SSE 33 50 18 27 1011.6 - 0.0
21/01:00pm 26.1 21.6 18.2 61 5.0 SSE 39 56 21 30 1011.9 - 0.0
21/12:51pm 26.2 22.8 18.9 64 4.7 SSE 35 56 19 30 1011.9 - 0.0
21/12:30pm 26.8 23.1 18.3 59 5.4 SSE 35 48 19 26 1012.1 - 0.0
21/12:00pm 26.3 21.4 19.0 64 4.7 SSE 43 56 23 30 1012.3 - 0.0
21/11:50am 26.4 22.5 18.7 62 4.9 SSE 37 56 20 30 1012.3 - 0.0
21/11:30am 26.5 22.6 18.7 62 5.0 SSE 37 50 20 27 1012.4 - 0.0
21/11:16am 26.3 22.6 18.4 61 5.0 SSE 35 54 19 29 1012.4 - 0.0
21/11:00am 26.2 23.1 18.3 61 5.0 SSE 32 46 17 25 1012.5 1012.4 0.2
21/10:30am 26.2 22.7 17.8 60 5.3 SSE 33 44 18 24 1012.6 - 0.2
21/10:00am 25.4 22.4 17.7 62 4.8 SSE 30 43 16 23 1012.5 - 0.2
21/09:30am 25.4 21.3 17.4 61 5.0 SSE 35 48 19 26 1012.0 - 0.2
21/09:00am 25.1 22.0 18.3 66 4.3 SE 32 43 17 23 1011.6 - 0.2
21/08:30am 25.1 22.3 18.1 65 4.4 SSE 30 43 16 23 1011.4 - 0.2

Other Formats:

Comma delimited format used in spreadsheet applications
http://www.bom.gov.au/fwo/IDW60801/IDW60801.96996.axf

JavaScript Object Notation format (JSON) in row-major order
http://www.bom.gov.au/fwo/IDW60801/IDW60801.96996.json